Time;durP1;ratioP1;P1;durP2;ratioP2;P2;SDS_P1;SDS_P2;PMS_P1;PMS_P2;Temp;Humidity;BMP_temperature;BMP_pressure;BME280_temperature;BME280_humidity;BME280_pressure;Samples;Min_cycle;Max_cycle;Signal;HPM_P1;HPM_P2
2022/05/24 00:00:09;;;;;;;3.88;1.75;;;16.20;99.90;;;;;;4929864;29;20078;-77
2022/05/24 00:02:34;;;;;;;2.47;1.58;;;16.10;99.90;;;;;;4925348;29;20130;-76
2022/05/24 00:05:00;;;;;;;5.43;2.45;;;16.10;99.90;;;;;;4928032;29;20044;-77
2022/05/24 00:07:26;;;;;;;2.03;1.75;;;16.00;99.90;;;;;;4928959;29;20043;-77
2022/05/24 00:09:52;;;;;;;1.75;1.65;;;16.00;99.90;;;;;;4928366;29;20472;-77
2022/05/24 00:12:17;;;;;;;3.25;1.70;;;16.00;99.90;;;;;;4925953;29;20050;-76
2022/05/24 00:17:27;;;;;;;2.65;2.05;;;16.00;99.90;;;;;;4924760;29;20158;-76
2022/05/24 00:19:53;;;;;;;3.65;1.77;;;16.00;99.90;;;;;;4920076;29;20035;-76
2022/05/24 00:22:18;;;;;;;1.95;1.77;;;16.10;99.90;;;;;;4927120;29;20055;-77
2022/05/24 00:24:44;;;;;;;3.40;1.70;;;16.10;99.90;;;;;;4927516;29;20066;-76
2022/05/24 00:27:09;;;;;;;3.88;1.77;;;16.00;99.90;;;;;;4926537;29;20126;-76
2022/05/24 00:29:35;;;;;;;4.93;2.22;;;16.10;99.90;;;;;;4918582;29;20044;-76
2022/05/24 00:32:01;;;;;;;3.78;1.90;;;16.10;99.90;;;;;;4920775;29;20407;-76
2022/05/24 00:34:26;;;;;;;4.53;2.00;;;16.10;99.90;;;;;;4924808;29;20090;-76
2022/05/24 00:36:52;;;;;;;3.40;2.13;;;16.10;99.90;;;;;;4924745;29;20115;-76
2022/05/24 00:39:18;;;;;;;2.50;2.00;;;16.10;99.90;;;;;;4923761;29;20032;-77
2022/05/24 00:42:01;;;;;;;3.25;2.10;;;16.10;99.90;;;;;;4924629;29;20043;-76
2022/05/24 00:44:32;;;;;;;2.60;2.10;;;16.10;99.90;;;;;;4927638;29;20042;-76
2022/05/24 00:47:05;;;;;;;2.88;1.95;;;16.10;99.90;;;;;;4927302;29;21501;-76
2022/05/24 00:49:48;;;;;;;2.42;2.00;;;16.10;99.90;;;;;;4926397;29;20032;-76
2022/05/24 00:52:16;;;;;;;2.78;1.80;;;16.20;99.90;;;;;;4925657;29;20043;-76
2022/05/24 00:54:42;;;;;;;3.50;2.38;;;16.10;99.90;;;;;;4924563;29;20109;-76
2022/05/24 00:57:19;;;;;;;2.45;1.90;;;16.10;99.90;;;;;;4922852;29;20035;-76
2022/05/24 00:59:55;;;;;;;3.45;2.20;;;16.10;99.90;;;;;;4928614;29;20041;-76
2022/05/24 01:02:21;;;;;;;3.83;2.05;;;16.10;99.90;;;;;;4923481;29;20106;-76
2022/05/24 01:04:47;;;;;;;4.40;2.13;;;16.10;99.90;;;;;;4926228;29;20134;-76
2022/05/24 01:07:13;;;;;;;3.30;2.50;;;16.10;99.90;;;;;;4926270;29;20048;-76
2022/05/24 01:10:00;;;;;;;2.60;1.85;;;16.10;99.90;;;;;;4923253;29;20027;-76
2022/05/24 01:13:06;;;;;;;2.45;1.77;;;16.00;99.90;;;;;;4905278;29;20055;-76
2022/05/24 01:15:33;;;;;;;5.13;1.98;;;16.00;99.90;;;;;;4924716;29;20031;-76
2022/05/24 01:17:59;;;;;;;2.38;2.10;;;16.00;99.90;;;;;;4925916;29;20035;-76
2022/05/24 01:20:26;;;;;;;4.38;2.30;;;16.00;99.90;;;;;;4925237;29;20076;-76
2022/05/24 01:23:21;;;;;;;3.65;2.10;;;16.00;99.90;;;;;;4922866;29;20031;-76
2022/05/24 01:26:03;;;;;;;2.88;2.20;;;16.00;99.90;;;;;;4924485;29;20114;-76
2022/05/24 01:28:37;;;;;;;4.15;2.00;;;16.00;99.90;;;;;;4925623;29;20050;-76
2022/05/24 01:31:03;;;;;;;3.42;2.20;;;16.00;99.90;;;;;;4921986;29;20088;-76
2022/05/24 01:36:15;;;;;;;7.43;2.83;;;16.00;99.90;;;;;;4923428;29;20038;-76
2022/05/24 01:38:46;;;;;;;3.85;2.22;;;16.00;99.90;;;;;;4926515;29;20126;-76
2022/05/24 01:41:17;;;;;;;3.65;2.03;;;16.00;99.90;;;;;;4930629;29;20031;-76
2022/05/24 01:43:44;;;;;;;4.95;1.98;;;16.00;99.90;;;;;;4911449;29;20762;-76
2022/05/24 01:46:12;;;;;;;2.47;1.98;;;16.00;99.90;;;;;;4927861;29;20098;-76
2022/05/24 01:48:46;;;;;;;2.28;2.05;;;16.00;99.90;;;;;;4928436;29;20076;-76
2022/05/24 01:51:15;;;;;;;3.65;2.10;;;15.90;99.90;;;;;;4929530;29;20043;-76
2022/05/24 01:53:48;;;;;;;3.90;2.22;;;15.90;99.90;;;;;;4927059;29;20054;-76
2022/05/24 01:56:19;;;;;;;2.90;2.00;;;15.90;99.90;;;;;;4927087;29;20076;-76
2022/05/24 01:58:49;;;;;;;4.10;1.90;;;15.90;99.90;;;;;;4931034;29;20034;-75
2022/05/24 02:01:28;;;;;;;4.32;2.00;;;15.90;99.90;;;;;;4924580;29;20055;-76
2022/05/24 02:03:54;;;;;;;3.78;2.00;;;15.90;99.90;;;;;;4926911;29;20459;-76
2022/05/24 02:06:21;;;;;;;3.40;1.92;;;16.00;99.90;;;;;;4925837;29;20053;-76
2022/05/24 02:08:47;;;;;;;4.87;2.37;;;16.00;99.90;;;;;;4928624;29;20086;-76
2022/05/24 02:11:14;;;;;;;2.38;1.75;;;16.00;99.90;;;;;;4928855;29;21081;-76
2022/05/24 02:13:43;;;;;;;3.58;1.95;;;16.00;99.90;;;;;;4926385;29;20043;-76
2022/05/24 02:16:15;;;;;;;4.07;2.25;;;16.10;99.90;;;;;;4927099;29;20036;-76
2022/05/24 02:18:44;;;;;;;3.17;2.45;;;16.10;99.90;;;;;;4927460;29;20043;-76
2022/05/24 02:21:10;;;;;;;4.95;2.22;;;16.10;99.90;;;;;;4926931;29;20387;-76
2022/05/24 02:23:40;;;;;;;3.08;2.13;;;16.20;99.90;;;;;;4924749;29;20043;-76
2022/05/24 02:26:08;;;;;;;2.40;2.05;;;16.20;99.90;;;;;;4929172;29;20044;-76
2022/05/24 02:28:34;;;;;;;4.60;2.50;;;16.20;99.90;;;;;;4926072;29;20051;-76
2022/05/24 02:31:03;;;;;;;4.30;2.38;;;16.20;99.90;;;;;;4927808;29;20044;-76
2022/05/24 02:33:29;;;;;;;3.75;2.17;;;16.20;99.90;;;;;;4927864;29;20480;-76
2022/05/24 02:35:55;;;;;;;2.50;2.08;;;16.10;99.90;;;;;;4926042;29;20051;-76
2022/05/24 02:38:21;;;;;;;3.22;2.30;;;16.10;99.90;;;;;;4923320;29;20391;-76
2022/05/24 02:43:33;;;;;;;4.20;2.35;;;16.20;99.90;;;;;;4928369;29;20126;-76
2022/05/24 02:45:58;;;;;;;3.65;2.40;;;16.20;99.90;;;;;;4929894;29;20095;-76
2022/05/24 02:48:24;;;;;;;4.25;2.35;;;16.20;99.90;;;;;;4927025;29;20046;-76
2022/05/24 02:50:49;;;;;;;3.97;2.30;;;16.20;99.90;;;;;;4928330;29;20031;-76
2022/05/24 02:53:15;;;;;;;2.55;2.15;;;16.20;99.90;;;;;;4926879;29;20040;-76
2022/05/24 02:55:41;;;;;;;4.07;2.10;;;16.30;99.90;;;;;;4927888;29;21566;-76
2022/05/24 02:58:07;;;;;;;4.13;2.22;;;16.30;99.90;;;;;;4926457;29;20040;-76
2022/05/24 03:00:33;;;;;;;4.43;2.20;;;16.20;99.90;;;;;;4929807;29;20047;-76
2022/05/24 03:02:58;;;;;;;3.53;2.05;;;16.20;99.90;;;;;;4927472;29;20031;-76
2022/05/24 03:05:25;;;;;;;3.45;2.13;;;16.10;99.90;;;;;;4930479;29;20463;-76
2022/05/24 03:10:36;;;;;;;4.00;2.10;;;16.10;99.90;;;;;;4925403;29;20200;-76
2022/05/24 03:15:48;;;;;;;2.30;2.10;;;16.10;99.90;;;;;;4928442;29;20070;-76
2022/05/24 03:18:16;;;;;;;2.50;2.28;;;16.10;99.90;;;;;;4925837;29;20163;-76
2022/05/24 03:20:43;;;;;;;2.90;2.03;;;16.10;99.90;;;;;;4927888;29;20495;-76
2022/05/24 03:23:09;;;;;;;2.42;2.13;;;16.10;99.90;;;;;;4926129;29;20042;-76
2022/05/24 03:25:35;;;;;;;2.17;1.98;;;16.00;99.90;;;;;;4931060;29;20039;-76
2022/05/24 03:28:03;;;;;;;3.35;2.10;;;16.10;99.90;;;;;;4930508;29;20042;-76
2022/05/24 03:30:30;;;;;;;2.60;2.35;;;16.10;99.90;;;;;;4926450;29;20066;-76
2022/05/24 03:32:56;;;;;;;3.20;2.20;;;16.10;99.90;;;;;;4929824;29;20482;-76
2022/05/24 03:35:23;;;;;;;3.47;2.08;;;16.10;99.90;;;;;;4927781;29;20032;-76
2022/05/24 03:37:48;;;;;;;2.53;2.33;;;16.10;99.90;;;;;;4925682;29;20090;-76
2022/05/24 03:40:14;;;;;;;2.67;2.38;;;16.10;99.90;;;;;;4925978;29;20476;-75
2022/05/24 03:42:40;;;;;;;6.70;2.60;;;16.10;99.90;;;;;;4929211;29;20038;-76
2022/05/24 03:45:07;;;;;;;2.50;2.30;;;16.10;99.90;;;;;;4925064;29;20040;-76
2022/05/24 03:47:34;;;;;;;2.60;2.30;;;16.10;99.90;;;;;;4926729;29;20040;-76
2022/05/24 03:50:00;;;;;;;2.50;2.30;;;16.10;99.90;;;;;;4924516;29;20514;-76
2022/05/24 03:52:26;;;;;;;5.10;2.40;;;16.20;99.90;;;;;;4927531;29;20055;-76
2022/05/24 03:54:51;;;;;;;3.80;2.28;;;16.10;99.90;;;;;;4928864;29;20068;-76
2022/05/24 04:00:02;;;;;;;2.53;2.00;;;16.10;99.90;;;;;;4926123;29;20472;-76
2022/05/24 04:02:27;;;;;;;2.30;2.10;;;16.10;99.90;;;;;;4923301;29;20052;-75
2022/05/24 04:04:53;;;;;;;2.83;2.20;;;16.10;99.90;;;;;;4924177;29;21639;-76
2022/05/24 04:07:19;;;;;;;4.30;2.38;;;16.00;99.90;;;;;;4925904;29;20133;-76
2022/05/24 04:09:45;;;;;;;7.65;2.50;;;16.00;99.90;;;;;;4926290;29;20032;-76
2022/05/24 04:12:11;;;;;;;4.93;2.28;;;15.90;99.90;;;;;;4908165;29;20066;-76
2022/05/24 04:14:36;;;;;;;6.47;2.90;;;16.00;99.90;;;;;;4923732;29;20032;-76
2022/05/24 04:17:02;;;;;;;3.13;2.17;;;16.00;99.90;;;;;;4923882;29;20043;-76
2022/05/24 04:19:28;;;;;;;3.67;2.38;;;15.90;99.90;;;;;;4925209;29;20032;-76
2022/05/24 04:21:54;;;;;;;3.20;2.50;;;15.90;99.90;;;;;;4923675;29;20044;-76
2022/05/24 04:24:20;;;;;;;4.15;2.30;;;16.00;99.90;;;;;;4927262;29;20039;-76
2022/05/24 04:26:47;;;;;;;5.20;2.70;;;16.10;99.90;;;;;;4928075;29;20050;-76
2022/05/24 04:29:12;;;;;;;3.38;2.45;;;16.00;99.90;;;;;;4926658;29;20032;-76
2022/05/24 04:31:38;;;;;;;2.60;2.17;;;16.00;99.90;;;;;;4926858;29;20051;-76
2022/05/24 04:34:04;;;;;;;4.47;2.10;;;16.00;99.90;;;;;;4927649;29;20035;-76
2022/05/24 04:36:31;;;;;;;3.50;2.13;;;16.00;99.90;;;;;;4922315;29;20047;-76
2022/05/24 04:38:57;;;;;;;3.45;2.10;;;16.00;99.90;;;;;;4928188;29;20047;-76
2022/05/24 04:44:08;;;;;;;2.92;2.10;;;15.90;99.90;;;;;;4925814;29;20094;-77
2022/05/24 04:49:20;;;;;;;3.25;2.22;;;15.90;99.90;;;;;;4927859;29;20107;-76
2022/05/24 04:51:46;;;;;;;4.20;2.63;;;15.90;99.90;;;;;;4925930;29;20032;-76
2022/05/24 04:54:11;;;;;;;4.78;2.85;;;16.00;99.90;;;;;;4925998;29;20055;-76
2022/05/24 04:56:37;;;;;;;4.82;2.90;;;15.90;99.90;;;;;;4926411;29;20057;-75
2022/05/24 04:59:03;;;;;;;4.60;2.75;;;15.90;99.90;;;;;;4924444;29;20058;-76
2022/05/24 05:01:28;;;;;;;6.22;3.60;;;15.90;99.90;;;;;;4923605;29;20052;-76
2022/05/24 05:03:54;;;;;;;5.22;3.42;;;15.80;99.90;;;;;;4925265;29;20035;-76
2022/05/24 05:06:20;;;;;;;5.57;2.90;;;15.80;99.90;;;;;;4928640;29;20151;-77
2022/05/24 05:08:46;;;;;;;6.13;3.40;;;15.80;99.90;;;;;;4927659;29;20067;-76
2022/05/24 05:11:11;;;;;;;6.43;3.13;;;15.80;99.90;;;;;;4923347;29;20048;-76
2022/05/24 05:13:37;;;;;;;3.88;2.60;;;15.80;99.90;;;;;;4924251;29;20043;-76
2022/05/24 05:16:03;;;;;;;2.33;2.13;;;15.90;99.90;;;;;;4928221;29;20039;-76
2022/05/24 05:18:28;;;;;;;3.63;2.30;;;15.90;99.90;;;;;;4925021;29;20032;-76
2022/05/24 05:20:54;;;;;;;2.70;2.50;;;15.90;99.90;;;;;;4929081;29;20040;-76
2022/05/24 05:23:20;;;;;;;3.95;2.40;;;15.90;99.90;;;;;;4926154;29;20569;-75
2022/05/24 05:25:49;;;;;;;2.47;1.80;;;15.90;99.90;;;;;;4926231;29;20042;-76
2022/05/24 05:28:16;;;;;;;3.95;2.50;;;15.90;99.90;;;;;;4926352;29;20483;-76
2022/05/24 05:33:26;;;;;;;4.18;2.00;;;15.90;99.90;;;;;;4928109;29;20086;-76
2022/05/24 05:35:52;;;;;;;2.75;2.25;;;15.90;99.90;;;;;;4924837;29;20390;-76
2022/05/24 05:38:18;;;;;;;2.17;1.95;;;15.90;99.90;;;;;;4926014;29;20090;-76
2022/05/24 05:40:44;;;;;;;1.90;1.80;;;15.90;99.90;;;;;;4926574;29;20078;-76
2022/05/24 05:43:10;;;;;;;3.70;2.03;;;15.90;99.90;;;;;;4925155;29;20043;-76
2022/05/24 05:45:37;;;;;;;1.75;1.65;;;15.90;99.90;;;;;;4927098;29;20059;-76
2022/05/24 05:48:04;;;;;;;3.13;2.03;;;15.90;99.90;;;;;;4925697;29;20179;-75
2022/05/24 05:50:29;;;;;;;3.17;1.83;;;15.90;99.90;;;;;;4924092;29;20032;-75
2022/05/24 05:52:55;;;;;;;2.70;1.90;;;15.90;99.90;;;;;;4928179;29;20201;-75
2022/05/24 05:55:21;;;;;;;5.00;1.92;;;15.90;99.90;;;;;;4922988;29;20119;-76
2022/05/24 05:57:47;;;;;;;3.13;2.13;;;15.90;99.90;;;;;;4924512;29;20047;-76
2022/05/24 06:00:14;;;;;;;3.13;2.10;;;15.90;99.90;;;;;;4931418;29;20044;-77
2022/05/24 06:02:41;;;;;;;2.08;1.75;;;15.90;99.90;;;;;;4929574;29;20143;-77
2022/05/24 06:05:07;;;;;;;2.33;1.70;;;15.80;99.90;;;;;;4929522;29;20498;-77
2022/05/24 06:07:33;;;;;;;3.83;1.60;;;15.90;99.90;;;;;;4928972;29;20161;-77
2022/05/24 06:09:58;;;;;;;2.03;1.83;;;15.80;99.90;;;;;;4927160;29;20110;-77
2022/05/24 06:12:25;;;;;;;2.95;2.03;;;15.80;99.90;;;;;;4929022;29;20051;-77
2022/05/24 06:14:50;;;;;;;2.22;1.70;;;15.80;99.90;;;;;;4926182;29;20040;-76
2022/05/24 06:17:16;;;;;;;2.40;1.88;;;15.70;99.90;;;;;;4925935;29;20427;-76
2022/05/24 06:19:43;;;;;;;2.03;1.92;;;15.80;99.90;;;;;;4926312;29;20281;-76
2022/05/24 06:22:09;;;;;;;2.50;2.30;;;15.90;99.90;;;;;;4927039;29;20028;-76
2022/05/24 06:24:35;;;;;;;1.80;1.70;;;15.80;99.90;;;;;;4930989;29;20050;-77
2022/05/24 06:27:02;;;;;;;3.75;2.03;;;15.70;99.90;;;;;;4931917;29;20043;-76
2022/05/24 06:29:30;;;;;;;4.07;2.25;;;15.80;99.90;;;;;;4929236;29;20042;-76
2022/05/24 06:31:56;;;;;;;3.15;2.20;;;15.70;99.90;;;;;;4930548;29;20046;-76
2022/05/24 06:34:21;;;;;;;2.50;2.17;;;15.70;99.90;;;;;;4933833;29;20035;-77
2022/05/24 06:36:47;;;;;;;3.03;2.17;;;15.70;99.90;;;;;;4935043;29;20040;-77
2022/05/24 06:39:13;;;;;;;2.30;1.88;;;15.70;99.90;;;;;;4933202;29;20462;-76
2022/05/24 06:41:38;;;;;;;2.47;2.13;;;15.80;99.90;;;;;;4932398;29;20036;-75
2022/05/24 06:44:05;;;;;;;1.85;1.75;;;15.80;99.90;;;;;;4931792;29;20087;-76
2022/05/24 06:46:31;;;;;;;3.45;2.10;;;15.80;99.90;;;;;;4932910;29;20043;-76
2022/05/24 06:48:57;;;;;;;2.63;2.20;;;15.80;99.90;;;;;;4930745;29;20036;-76
2022/05/24 06:51:23;;;;;;;3.05;2.45;;;15.80;99.90;;;;;;4931442;29;20480;-76
2022/05/24 06:53:50;;;;;;;1.95;1.77;;;15.80;99.90;;;;;;4930646;29;20035;-76
2022/05/24 06:56:16;;;;;;;3.65;2.50;;;15.80;99.90;;;;;;4912305;29;20027;-76
2022/05/24 06:58:42;;;;;;;5.25;2.45;;;15.60;99.90;;;;;;4931645;29;20111;-76
2022/05/24 07:03:55;;;;;;;2.63;2.30;;;15.70;99.90;;;;;;4929734;29;20041;-76
2022/05/24 07:06:21;;;;;;;3.63;2.38;;;15.70;99.90;;;;;;4931070;29;20044;-78
2022/05/24 07:08:47;;;;;;;3.95;2.17;;;15.70;99.90;;;;;;4930355;29;20114;-76
2022/05/24 07:11:16;;;;;;;4.28;3.15;;;15.70;99.90;;;;;;4935203;29;20049;-76
2022/05/24 07:13:42;;;;;;;6.55;1.92;;;15.60;99.90;;;;;;4927498;29;20035;-76
2022/05/24 07:16:08;;;;;;;4.03;1.60;;;15.60;99.90;;;;;;4931907;29;20050;-76
2022/05/24 07:18:35;;;;;;;2.42;1.63;;;15.70;99.90;;;;;;4928177;29;20042;-76
2022/05/24 07:21:01;;;;;;;1.80;1.60;;;15.60;99.90;;;;;;4928777;29;20095;-75
2022/05/24 07:23:27;;;;;;;2.60;1.90;;;15.70;99.90;;;;;;4926961;29;20038;-75
2022/05/24 07:25:54;;;;;;;1.85;1.60;;;15.70;99.90;;;;;;4927195;29;20036;-76
2022/05/24 07:28:22;;;;;;;2.15;1.98;;;15.70;99.90;;;;;;4928941;29;20050;-76
2022/05/24 07:30:49;;;;;;;3.07;2.00;;;15.70;99.90;;;;;;4927734;29;20148;-76
2022/05/24 07:33:16;;;;;;;1.85;1.60;;;15.60;99.90;;;;;;4927660;29;20480;-76
2022/05/24 07:35:43;;;;;;;1.90;1.42;;;15.70;99.90;;;;;;4928784;29;20034;-76
2022/05/24 07:38:11;;;;;;;2.25;1.65;;;15.70;99.90;;;;;;4927244;29;20126;-76
2022/05/24 07:46:10;;;;;;;2.28;1.33;;;15.50;99.90;;;;;;4930029;29;20086;-76
2022/05/24 07:48:36;;;;;;;1.35;1.25;;;15.30;99.90;;;;;;4934992;29;20135;-76
2022/05/24 07:51:03;;;;;;;2.08;1.08;;;15.30;99.90;;;;;;4935128;29;20783;-76
2022/05/24 07:53:29;;;;;;;1.77;1.52;;;15.20;99.90;;;;;;4930809;29;20039;-76
2022/05/24 07:55:56;;;;;;;1.42;1.33;;;15.20;99.90;;;;;;4932970;29;20386;-76
2022/05/24 07:58:23;;;;;;;2.63;1.33;;;15.30;99.90;;;;;;4931932;29;20034;-77
2022/05/24 08:00:49;;;;;;;1.95;1.27;;;15.30;99.90;;;;;;4929329;29;20070;-76
2022/05/24 08:03:15;;;;;;;3.80;1.58;;;15.20;99.90;;;;;;4932792;29;20040;-76
2022/05/24 08:05:41;;;;;;;2.10;1.40;;;15.20;99.90;;;;;;4932458;29;20051;-76
2022/05/24 08:08:08;;;;;;;1.33;1.23;;;15.10;99.90;;;;;;4932955;29;21207;-76
2022/05/24 08:10:35;;;;;;;1.20;1.10;;;15.00;99.90;;;;;;4932168;29;20262;-76
2022/05/24 08:13:10;;;;;;;2.33;1.33;;;15.10;99.90;;;;;;4932539;29;20511;-76
2022/05/24 08:15:36;;;;;;;4.05;1.17;;;15.00;99.90;;;;;;4912880;29;20130;-76
2022/05/24 08:18:03;;;;;;;1.58;1.30;;;15.10;99.90;;;;;;4930035;29;20128;-76
2022/05/24 08:20:32;;;;;;;2.55;1.20;;;15.10;99.90;;;;;;4930864;29;20099;-76
2022/05/24 08:22:58;;;;;;;1.48;1.20;;;15.10;99.90;;;;;;4931638;29;20047;-76
2022/05/24 08:25:25;;;;;;;2.50;1.30;;;15.00;99.90;;;;;;4931599;29;20142;-76
2022/05/24 08:27:51;;;;;;;1.30;1.20;;;15.20;99.90;;;;;;4932015;29;20039;-76
2022/05/24 08:30:18;;;;;;;2.03;1.30;;;15.20;99.90;;;;;;4930002;29;20034;-76
2022/05/24 08:32:47;;;;;;;1.63;1.10;;;15.20;99.90;;;;;;4931984;29;20679;-76
2022/05/24 08:35:14;;;;;;;2.33;1.48;;;15.20;99.90;;;;;;4930779;29;20070;-76
2022/05/24 08:37:41;;;;;;;2.20;1.40;;;15.20;99.90;;;;;;4931626;29;20059;-76
2022/05/24 08:40:08;;;;;;;1.55;1.30;;;15.20;99.90;;;;;;4931737;29;20103;-76
2022/05/24 08:43:01;;;;;;;1.92;1.33;;;15.20;99.90;;;;;;4933621;29;20042;-76
2022/05/24 08:48:28;;;;;;;2.95;1.40;;;15.20;99.90;;;;;;4924500;29;20045;-76
2022/05/24 08:51:06;;;;;;;2.38;1.42;;;15.30;99.90;;;;;;4932030;29;20040;-76
2022/05/24 08:53:34;;;;;;;;;;;15.40;99.90;;;;;;4934703;29;20546;-76
2022/05/24 08:56:04;;;;;;;1.67;1.05;;;15.40;99.90;;;;;;4929675;29;21337;-76
2022/05/24 08:58:48;;;;;;;3.20;1.20;;;15.30;99.90;;;;;;4926176;29;20044;-76
2022/05/24 09:01:32;;;;;;;3.35;1.10;;;15.20;99.90;;;;;;4928730;29;20043;-76
2022/05/24 09:04:17;;;;;;;1.40;1.27;;;15.30;99.90;;;;;;4928271;29;20039;-77
2022/05/24 09:06:51;;;;;;;2.70;1.20;;;15.40;99.90;;;;;;4928559;29;20186;-76
2022/05/24 09:09:41;;;;;;;1.73;1.00;;;15.40;99.90;;;;;;4910942;29;20039;-77
2022/05/24 09:12:33;;;;;;;2.63;1.40;;;15.30;99.90;;;;;;4930743;29;20552;-76
2022/05/24 09:15:02;;;;;;;2.15;1.50;;;15.40;99.90;;;;;;4930305;29;20119;-76
2022/05/24 09:17:39;;;;;;;1.98;1.60;;;15.60;99.90;;;;;;4929678;29;20035;-76
2022/05/24 09:20:38;;;;;;;2.35;2.03;;;15.60;99.90;;;;;;4929448;29;20103;-77
2022/05/24 09:23:23;;;;;;;3.42;1.80;;;15.70;99.90;;;;;;4903219;29;20127;-76
2022/05/24 09:26:10;;;;;;;2.42;1.73;;;15.80;99.90;;;;;;4927530;29;20063;-77
2022/05/24 09:28:48;;;;;;;2.03;1.83;;;15.80;99.90;;;;;;4929959;29;20039;-76
2022/05/24 09:31:33;;;;;;;2.55;1.60;;;15.80;99.90;;;;;;4930170;29;20186;-77
2022/05/24 09:34:07;;;;;;;1.83;1.40;;;15.90;99.90;;;;;;4928713;29;20036;-76
2022/05/24 09:36:41;;;;;;;3.05;1.70;;;16.10;99.90;;;;;;4931505;29;20524;-77
2022/05/24 09:39:21;;;;;;;3.20;1.63;;;16.30;99.90;;;;;;4928535;29;20038;-77
2022/05/24 09:41:55;;;;;;;1.60;1.50;;;16.40;99.90;;;;;;4930769;29;20039;-77
2022/05/24 09:44:21;;;;;;;1.48;1.30;;;16.60;99.90;;;;;;4924878;29;20043;-77
2022/05/24 09:46:47;;;;;;;2.33;1.85;;;16.50;99.90;;;;;;4930908;29;20047;-77
2022/05/24 09:49:22;;;;;;;2.08;1.50;;;16.40;99.90;;;;;;4933033;29;20543;-77
2022/05/24 09:51:49;;;;;;;1.60;1.13;;;16.60;99.90;;;;;;4932236;29;20475;-77
2022/05/24 09:54:21;;;;;;;1.95;1.60;;;16.60;99.90;;;;;;4932185;29;20457;-76
2022/05/24 09:57:05;;;;;;;1.60;1.50;;;16.50;99.90;;;;;;4931631;29;20035;-76
2022/05/24 09:59:31;;;;;;;1.48;1.33;;;16.30;99.90;;;;;;4932300;29;20915;-76
2022/05/24 10:01:56;;;;;;;2.67;1.83;;;16.20;99.90;;;;;;4932225;29;20131;-76
2022/05/24 10:04:28;;;;;;;2.88;2.03;;;16.10;99.90;;;;;;4934386;29;20139;-76
2022/05/24 10:07:03;;;;;;;2.95;1.40;;;16.00;99.90;;;;;;4933296;29;20044;-76
2022/05/24 10:09:40;;;;;;;2.50;2.22;;;15.90;99.90;;;;;;4935866;29;20044;-76
2022/05/24 10:12:13;;;;;;;1.60;1.50;;;15.90;99.90;;;;;;4913511;29;20048;-76
2022/05/24 10:14:44;;;;;;;3.63;1.50;;;15.90;99.90;;;;;;4916543;29;20445;-77
2022/05/24 10:17:10;;;;;;;2.33;1.65;;;15.80;99.90;;;;;;4914204;29;20027;-77
2022/05/24 10:19:54;;;;;;;2.03;1.70;;;15.90;99.90;;;;;;4917030;29;20040;-77
2022/05/24 10:22:36;;;;;;;3.92;1.40;;;16.00;99.90;;;;;;4914701;29;20040;-77
2022/05/24 10:25:12;;;;;;;0.60;0.60;;;15.90;99.90;;;;;;4916196;29;20048;-76
2022/05/24 10:28:08;;;;;;;0.60;0.60;;;15.40;99.90;;;;;;4914283;29;20110;-76
2022/05/24 10:31:08;;;;;;;0.70;0.70;;;15.20;99.90;;;;;;4914326;29;20530;-76
2022/05/24 10:39:46;;;;;;;3.55;0.63;;;14.80;99.90;;;;;;4916017;29;20076;-76
2022/05/24 10:42:19;;;;;;;0.43;0.40;;;14.90;99.90;;;;;;4913125;29;20036;-76
2022/05/24 10:45:00;;;;;;;0.95;0.70;;;14.90;99.90;;;;;;4911537;29;20608;-76
2022/05/24 10:47:42;;;;;;;0.50;0.50;;;14.90;99.90;;;;;;4914924;29;20068;-76
2022/05/24 10:50:15;;;;;;;1.38;0.30;;;14.90;99.90;;;;;;4912977;29;20036;-76
2022/05/24 10:53:00;;;;;;;0.43;0.43;;;15.00;99.90;;;;;;4915195;29;20036;-76
2022/05/24 10:55:31;;;;;;;0.40;0.40;;;15.00;99.90;;;;;;4912425;29;20063;-76
2022/05/24 10:58:18;;;;;;;0.75;0.43;;;15.00;99.90;;;;;;4912555;29;20087;-76
2022/05/24 11:00:53;;;;;;;1.52;0.55;;;15.00;99.90;;;;;;4910458;29;20091;-76
2022/05/24 11:03:30;;;;;;;0.50;0.50;;;15.00;99.90;;;;;;4911404;29;20047;-76
2022/05/24 11:06:10;;;;;;;0.95;0.50;;;15.00;99.90;;;;;;4913909;29;20468;-76
2022/05/24 11:08:54;;;;;;;0.90;0.52;;;15.10;99.90;;;;;;4913819;29;20036;-77
2022/05/24 11:11:25;;;;;;;2.17;0.60;;;15.20;99.90;;;;;;4918372;29;20068;-76
2022/05/24 11:14:20;;;;;;;1.00;0.70;;;15.20;99.90;;;;;;4926853;29;20086;-77
2022/05/24 11:16:47;;;;;;;0.50;0.50;;;15.20;99.90;;;;;;4909269;29;20039;-77
2022/05/24 11:19:25;;;;;;;2.90;1.05;;;15.20;99.90;;;;;;4934186;29;20035;-77
2022/05/24 11:22:01;;;;;;;0.77;0.60;;;15.20;99.90;;;;;;4920198;29;20035;-77
2022/05/24 11:24:49;;;;;;;0.95;0.95;;;15.20;99.90;;;;;;4932220;29;20074;-77
2022/05/24 11:27:22;;;;;;;1.85;0.80;;;15.20;99.90;;;;;;4933280;29;20051;-77
2022/05/24 11:29:56;;;;;;;0.77;0.77;;;15.20;99.90;;;;;;4932048;29;20131;-77
2022/05/24 11:32:44;;;;;;;0.60;0.60;;;15.20;99.90;;;;;;4933121;29;20438;-77
2022/05/24 11:35:15;;;;;;;;;;;15.20;99.90;;;;;;4932407;29;20068;-76
2022/05/24 11:37:43;;;;;;;2.60;0.95;;;15.10;99.90;;;;;;4934231;29;19911;-76
2022/05/24 11:40:28;;;;;;;0.95;0.95;;;14.80;99.90;;;;;;4932602;29;20044;-76
2022/05/24 11:42:54;;;;;;;1.17;1.08;;;14.80;99.90;;;;;;4934193;29;20356;-76
2022/05/24 11:45:29;;;;;;;2.05;1.20;;;14.80;99.90;;;;;;4931640;29;20060;-76
2022/05/24 11:47:55;;;;;;;1.35;1.20;;;14.90;99.90;;;;;;4930164;29;20040;-76
2022/05/24 11:50:36;;;;;;;1.40;1.30;;;15.00;99.90;;;;;;4931771;29;20027;-77
2022/05/24 11:53:20;;;;;;;2.83;1.08;;;15.10;99.90;;;;;;4931779;29;20398;-76
2022/05/24 11:55:55;;;;;;;1.20;1.10;;;15.10;99.90;;;;;;4933781;29;20046;-76
2022/05/24 11:58:23;;;;;;;2.83;1.10;;;15.00;99.90;;;;;;4931618;29;20035;-76
2022/05/24 12:01:14;;;;;;;1.00;1.00;;;15.00;99.90;;;;;;4929536;29;20463;-76
2022/05/24 12:10:05;;;;;;;3.30;1.15;;;15.20;99.90;;;;;;4930967;29;20090;-76
2022/05/24 12:12:33;;;;;;;1.77;1.05;;;15.40;99.90;;;;;;4908860;29;20218;-76
2022/05/24 12:15:22;;;;;;;4.15;1.10;;;15.40;99.90;;;;;;4910459;29;20044;-76
2022/05/24 12:18:12;;;;;;;1.00;1.00;;;15.50;99.90;;;;;;4911549;29;20712;-77
2022/05/24 12:20:37;;;;;;;1.65;1.10;;;15.50;99.90;;;;;;4911922;29;20123;-76
2022/05/24 12:23:15;;;;;;;3.70;1.30;;;15.30;99.90;;;;;;4911864;29;20139;-76
2022/05/24 12:25:54;;;;;;;1.23;1.10;;;15.20;99.90;;;;;;4912324;29;20043;-76
2022/05/24 12:28:27;;;;;;;1.23;1.13;;;15.20;99.90;;;;;;4910901;29;20096;-76
2022/05/24 12:30:55;;;;;;;3.05;1.20;;;15.20;99.90;;;;;;4908509;29;20503;-76
2022/05/24 12:33:38;;;;;;;2.22;1.52;;;15.20;99.90;;;;;;4910632;29;20491;-76
2022/05/24 12:36:22;;;;;;;1.92;1.50;;;15.20;99.90;;;;;;4912590;29;20040;-76
2022/05/24 12:39:18;;;;;;;1.50;1.40;;;15.30;99.90;;;;;;4913832;29;20456;-77
2022/05/24 12:41:50;;;;;;;3.85;1.70;;;15.30;99.90;;;;;;4910149;29;20040;-77
2022/05/24 12:44:21;;;;;;;2.13;1.75;;;15.40;99.90;;;;;;4911923;29;20032;-76
2022/05/24 12:46:52;;;;;;;1.60;1.50;;;15.40;99.90;;;;;;4910089;29;20396;-76
2022/05/24 12:49:30;;;;;;;1.90;1.70;;;15.50;99.90;;;;;;4911115;29;20043;-77
2022/05/24 12:52:03;;;;;;;1.75;1.65;;;15.60;99.90;;;;;;4909911;29;20506;-77
2022/05/24 12:54:32;;;;;;;1.70;1.60;;;15.60;99.90;;;;;;4912351;29;20044;-77
2022/05/24 12:57:13;;;;;;;2.10;1.92;;;15.70;99.90;;;;;;4910140;29;20036;-76
2022/05/24 12:59:41;;;;;;;1.77;1.67;;;15.80;99.90;;;;;;4910247;29;20032;-77
2022/05/24 13:02:34;;;;;;;1.88;1.77;;;15.90;99.90;;;;;;4910337;29;20044;-77
2022/05/24 13:05:13;;;;;;;1.63;1.40;;;16.20;99.90;;;;;;4911189;29;21063;-77
2022/05/24 13:07:45;;;;;;;2.30;1.90;;;16.10;99.90;;;;;;4911735;29;20081;-77
2022/05/24 13:10:13;;;;;;;3.35;1.80;;;16.30;99.90;;;;;;4912519;29;20051;-77
2022/05/24 13:12:39;;;;;;;;;;;16.40;99.90;;;;;;4930523;29;20052;-77
2022/05/24 13:15:08;;;;;;;1.75;1.65;;;16.60;99.90;;;;;;4930524;29;19914;-77
2022/05/24 13:17:45;;;;;;;1.85;1.75;;;16.70;99.90;;;;;;4930830;29;20044;-77
2022/05/24 13:20:19;;;;;;;2.10;1.60;;;16.70;99.90;;;;;;4926511;29;20491;-77
2022/05/24 13:22:47;;;;;;;3.55;1.75;;;16.60;99.90;;;;;;4929316;29;20035;-77
2022/05/24 13:25:20;;;;;;;1.85;1.67;;;16.70;99.90;;;;;;4928608;29;20391;-77
2022/05/24 13:27:59;;;;;;;2.55;1.70;;;16.60;99.90;;;;;;4930521;29;20094;-77
2022/05/24 13:33:34;;;;;;;1.80;1.48;;;16.70;99.90;;;;;;4929802;29;20046;-77
2022/05/24 13:36:18;;;;;;;1.73;1.63;;;16.80;99.90;;;;;;4934691;29;20055;-77
2022/05/24 13:38:46;;;;;;;1.70;1.60;;;16.80;99.90;;;;;;4931747;29;20031;-76
2022/05/24 13:41:24;;;;;;;2.65;1.67;;;16.80;99.90;;;;;;4935725;29;20031;-77
2022/05/24 13:44:10;;;;;;;1.73;1.63;;;16.50;99.90;;;;;;4932432;29;20039;-78
2022/05/24 13:46:55;;;;;;;1.80;1.60;;;16.60;99.90;;;;;;4933595;29;20059;-76
2022/05/24 13:49:43;;;;;;;1.92;1.55;;;16.50;99.90;;;;;;4934689;29;20451;-76
2022/05/24 13:52:14;;;;;;;1.70;1.60;;;16.60;99.90;;;;;;4933366;29;20104;-77
2022/05/24 13:54:41;;;;;;;2.40;1.83;;;16.90;99.90;;;;;;4936274;29;20028;-77
2022/05/24 13:57:19;;;;;;;4.60;1.60;;;17.00;99.90;;;;;;4933464;29;20038;-76